createdAt,value
2019-05-09T13:56:40.745Z,100.00
2019-05-09T17:42:33.017Z,94.88
2019-05-09T17:45:01.363Z,94.32
2019-05-09T17:47:29.698Z,85.29
2019-05-09T17:49:58.001Z,90.90
2019-05-09T17:52:26.316Z,91.45
2019-05-09T17:54:54.956Z,87.29
2019-05-09T17:57:23.574Z,89.75
2019-05-09T17:59:51.874Z,89.62
2019-05-09T18:02:20.273Z,87.98
2019-05-09T18:04:48.671Z,86.77
2019-05-09T18:07:18.019Z,86.08
2019-05-09T18:09:48.419Z,89.24
2019-05-09T18:12:18.954Z,95.39
2019-05-09T18:14:47.619Z,85.48
2019-05-09T18:17:17.975Z,88.25
2019-05-09T18:19:46.533Z,88.25
2019-05-09T18:22:15.000Z,86.41
2019-05-09T18:24:43.317Z,90.79
2019-05-09T18:27:11.690Z,94.45
2019-05-09T18:29:39.996Z,92.95
2019-05-09T18:32:27.555Z,90.63
2019-05-09T18:35:13.896Z,91.83
2019-05-09T18:37:42.356Z,86.53
2019-05-09T18:40:11.134Z,91.32
2019-05-09T18:42:39.504Z,95.34
2019-05-09T18:45:09.361Z,95.17
2019-05-09T18:47:37.651Z,88.04
2019-05-09T18:50:09.690Z,95.05
2019-05-09T18:52:38.183Z,87.97
2019-05-09T18:55:09.815Z,93.08
2019-05-09T18:57:38.312Z,94.74
2019-05-09T19:00:09.196Z,95.07
2019-05-09T19:02:37.899Z,95.46
2019-05-09T19:05:12.832Z,96.71
2019-05-09T19:07:39.562Z,89.34
2019-05-09T19:10:08.115Z,91.59
2019-05-09T19:12:36.588Z,87.23
2019-05-09T19:15:08.553Z,91.02
2019-05-09T19:17:47.534Z,91.40
2019-05-09T19:20:17.610Z,96.11
2019-05-09T19:22:45.910Z,94.36
2019-05-09T19:25:14.385Z,94.65
2019-05-09T19:27:42.767Z,96.96
2019-05-09T19:30:11.350Z,96.55
2019-05-09T19:32:39.650Z,95.49
2019-05-09T19:35:08.805Z,95.01
2019-05-09T19:37:37.127Z,95.67
2019-05-09T19:40:10.071Z,95.19
2019-05-09T19:42:38.428Z,95.73
2019-05-09T19:45:07.573Z,96.73
2019-05-09T19:47:36.124Z,96.57
2019-05-09T19:50:07.117Z,96.09
2019-05-09T19:52:38.255Z,96.58
2019-05-09T19:55:06.541Z,96.09
2019-05-09T19:57:34.843Z,96.22
2019-05-09T20:00:04.567Z,96.57
2019-05-09T20:02:32.949Z,96.72
2019-05-09T20:05:01.240Z,96.32
2019-05-09T20:07:29.652Z,96.30
2019-05-09T20:10:11.504Z,96.37
2019-05-09T20:12:57.918Z,96.39
2019-05-09T20:15:26.582Z,96.07
2019-05-09T20:17:57.038Z,96.16
2019-05-09T20:20:25.242Z,96.83
2019-05-09T20:22:53.880Z,97.03
2019-05-09T20:27:59.484Z,96.49
2019-05-09T20:30:28.027Z,96.44
2019-05-09T20:32:56.347Z,97.14
2019-05-09T20:35:24.725Z,96.43
2019-05-09T20:37:53.281Z,95.93
2019-05-09T20:40:21.785Z,96.54
2019-05-09T20:42:50.311Z,96.25
2019-05-09T20:45:18.892Z,95.85
2019-05-09T20:47:47.398Z,96.98
2019-05-09T20:50:15.948Z,97.06
2019-05-09T20:52:44.445Z,97.34
2019-05-09T20:55:13.113Z,96.73
2019-05-09T20:57:41.622Z,97.00
2019-05-09T21:00:10.294Z,96.82
2019-05-09T21:02:38.775Z,97.04
2019-05-09T21:05:07.725Z,97.23
2019-05-09T21:07:36.337Z,97.76
2019-05-09T21:10:08.619Z,97.85
2019-05-09T21:12:37.114Z,97.91
2019-05-09T21:15:08.145Z,97.75
2019-05-09T21:17:36.697Z,98.18
2019-05-09T21:20:08.797Z,98.00
2019-05-09T21:22:37.276Z,98.17
2019-05-09T21:25:08.772Z,98.36
2019-05-09T21:27:37.634Z,98.42
2019-05-09T21:30:07.250Z,98.24
2019-05-09T21:32:36.030Z,98.06
2019-05-09T21:35:05.261Z,98.28
2019-05-09T21:37:33.648Z,98.21
2019-05-09T21:40:01.984Z,98.06
2019-05-09T21:42:30.321Z,98.04
2019-05-09T21:44:58.655Z,98.18
2019-05-09T21:47:26.980Z,97.30
2019-05-09T21:49:55.301Z,97.62
2019-05-09T21:52:23.716Z,97.68
2019-05-09T21:54:52.007Z,97.70
2019-05-09T21:57:20.340Z,97.91
2019-05-09T21:59:48.738Z,98.14
2019-05-09T22:02:17.383Z,98.08
2019-05-09T22:04:45.835Z,98.15
2019-05-09T22:07:14.689Z,98.02
2019-05-09T22:09:43.059Z,97.54
2019-05-09T22:12:11.744Z,97.51
2019-05-09T22:14:40.045Z,97.61
2019-05-09T22:17:15.840Z,97.70
2019-05-09T22:19:44.092Z,97.24
2019-05-09T22:22:12.481Z,97.81
2019-05-09T22:24:40.818Z,98.00
2019-05-09T22:27:09.201Z,97.83
2019-05-09T22:29:37.568Z,97.79
2019-05-09T22:32:06.048Z,98.07
2019-05-09T22:34:34.352Z,97.48
2019-05-09T22:37:02.675Z,97.67
2019-05-09T22:39:30.973Z,97.97
2019-05-09T22:41:59.396Z,97.96
2019-05-09T22:44:27.780Z,97.85
2019-05-09T22:46:56.103Z,97.55
2019-05-09T22:49:24.411Z,97.82
2019-05-09T22:51:52.710Z,97.59
2019-05-09T22:54:21.072Z,97.15
2019-05-09T22:56:49.369Z,97.38
2019-05-09T22:59:17.819Z,97.53
2019-05-09T23:01:46.064Z,97.67
2019-05-09T23:04:14.445Z,97.68
2019-05-09T23:06:42.773Z,97.35
2019-05-09T23:09:11.098Z,98.04
2019-05-09T23:11:39.377Z,98.24
2019-05-09T23:14:07.684Z,97.78
2019-05-09T23:16:37.640Z,98.30
2019-05-09T23:19:06.008Z,98.27
